La Mirada, California
Current Conditions -  °F | °C
As of 7:53 PM on Sunday 23 Nov 2014 (Local Time) from KFUL Reporting Station
Clear Clear  
Wind Chill: 61°   Ceiling: Unl
Heat Index: 61°   Visibility: 10mi
Dew Point: 40°   Wind: 0mph
Humidity: 46%   Direction: NA
Pressure: 30.11"   Gusts: NA
Location:  33.91°N, 118.01°W
Report Text: KFUL 240353Z 00000KT 10SM CLR 16/04 A3011 RMK AO2 SLP195 T01610044
Loading
Personal Weather Stations






























Interactive Weather Map New forecast layout! Learn more

10-Day Weather Forecast

Advertisements
Track Severe Weather on mobile